Time;durP1;ratioP1;P1;durP2;ratioP2;P2;SDS_P1;SDS_P2;PMS_P1;PMS_P2;Temp;Humidity;BMP_temperature;BMP_pressure;BME280_temperature;BME280_humidity;BME280_pressure;Samples;Min_cycle;Max_cycle;Signal;HPM_P1;HPM_P2
2023/05/01 00:00:52;;;;;;;14.05;6.10;;;6.20;70.80;;;;;;4803546;29;20047;-88
2023/05/01 00:03:19;;;;;;;15.97;6.30;;;6.20;70.80;;;;;;4800771;29;20490;-88
2023/05/01 00:05:47;;;;;;;13.38;5.32;;;6.20;70.60;;;;;;4800624;29;20047;-88
2023/05/01 00:08:14;;;;;;;15.68;5.97;;;6.20;70.40;;;;;;4798729;29;20060;-88
2023/05/01 00:10:41;;;;;;;10.75;5.38;;;6.20;69.90;;;;;;4798611;29;20115;-88
2023/05/01 00:13:08;;;;;;;15.30;6.00;;;6.20;70.00;;;;;;4813239;29;20047;-88
2023/05/01 00:15:36;;;;;;;13.93;5.90;;;6.20;69.90;;;;;;4800792;29;20569;-87
2023/05/01 00:18:03;;;;;;;13.68;6.20;;;6.20;69.80;;;;;;4800055;29;20073;-88
2023/05/01 00:20:30;;;;;;;14.75;5.90;;;6.20;69.80;;;;;;4801639;29;20042;-88
2023/05/01 00:22:57;;;;;;;13.15;5.50;;;6.10;70.00;;;;;;4798744;29;20051;-88
2023/05/01 00:25:24;;;;;;;12.40;5.47;;;6.00;70.30;;;;;;4802114;29;20051;-88
2023/05/01 00:27:51;;;;;;;16.17;5.77;;;6.00;70.50;;;;;;4796539;29;20050;-87
2023/05/01 00:30:18;;;;;;;11.98;5.47;;;6.00;70.70;;;;;;4798605;29;20066;-88
2023/05/01 00:32:45;;;;;;;14.43;6.20;;;6.00;70.70;;;;;;4813736;29;20490;-88
2023/05/01 00:35:12;;;;;;;13.15;5.50;;;6.00;70.60;;;;;;4793865;29;20076;-87
2023/05/01 00:37:39;;;;;;;14.85;5.50;;;5.90;70.40;;;;;;4812758;29;20104;-87
2023/05/01 00:40:07;;;;;;;12.17;5.13;;;5.80;70.70;;;;;;4811326;29;20130;-88
2023/05/01 00:42:38;;;;;;;12.23;5.35;;;5.80;70.60;;;;;;4796326;29;20047;-87
2023/05/01 00:45:07;;;;;;;13.20;5.78;;;5.70;70.50;;;;;;4799265;29;20158;-87
2023/05/01 00:47:35;;;;;;;15.32;5.72;;;5.60;70.60;;;;;;4797508;29;20069;-88
2023/05/01 00:50:03;;;;;;;16.27;5.28;;;5.60;71.00;;;;;;4815421;29;20046;-88
2023/05/01 00:52:31;;;;;;;12.43;5.43;;;5.60;71.20;;;;;;4815194;29;20053;-87
2023/05/01 00:54:58;;;;;;;14.95;5.75;;;5.50;71.20;;;;;;4799347;29;20057;-88
2023/05/01 00:57:25;;;;;;;12.45;5.22;;;5.50;71.20;;;;;;4815129;29;20046;-87
2023/05/01 00:59:52;;;;;;;11.20;5.10;;;5.50;71.20;;;;;;4818106;29;20054;-88
2023/05/01 01:02:20;;;;;;;11.68;5.00;;;5.50;71.00;;;;;;4815748;29;20046;-88
2023/05/01 01:04:47;;;;;;;11.63;4.67;;;5.50;70.90;;;;;;4811890;29;20138;-87
2023/05/01 01:07:22;;;;;;;12.90;4.85;;;5.60;70.80;;;;;;4815613;29;20509;-88
2023/05/01 01:10:39;;;;;;;10.57;5.15;;;5.60;70.40;;;;;;4816474;29;20050;-88
2023/05/01 01:13:19;;;;;;;11.88;4.88;;;5.70;70.10;;;;;;4771005;30;20051;-88
2023/05/01 01:16:10;;;;;;;11.13;5.00;;;5.60;70.30;;;;;;4832974;29;20103;-88
2023/05/01 01:18:57;;;;;;;14.03;5.23;;;5.50;70.40;;;;;;4819451;29;20454;-88
2023/05/01 01:21:31;;;;;;;11.00;4.57;;;5.50;70.40;;;;;;4819879;29;20042;-88
2023/05/01 01:24:40;;;;;;;13.23;5.05;;;5.50;70.30;;;;;;4816759;29;20049;-88
2023/05/01 01:27:22;;;;;;;12.63;5.40;;;5.40;70.30;;;;;;4810684;29;20050;-88
2023/05/01 01:30:33;;;;;;;11.93;4.93;;;5.40;70.40;;;;;;4821044;29;20054;-88
2023/05/01 01:33:37;;;;;;;12.10;4.90;;;5.50;70.30;;;;;;4817564;29;20038;-87
2023/05/01 01:36:09;;;;;;;12.82;5.60;;;5.50;70.50;;;;;;4821781;29;20524;-88
2023/05/01 01:38:44;;;;;;;11.90;5.32;;;5.30;70.50;;;;;;4818777;29;20516;-87
2023/05/01 01:41:18;;;;;;;13.10;5.20;;;5.20;70.60;;;;;;4818448;29;20053;-87
2023/05/01 01:43:54;;;;;;;13.13;4.88;;;5.10;70.70;;;;;;4817174;29;20058;-88
2023/05/01 01:46:23;;;;;;;12.73;5.13;;;5.00;70.80;;;;;;4816429;29;20054;-87
2023/05/01 01:48:54;;;;;;;13.25;4.80;;;4.90;70.90;;;;;;4819002;29;20447;-87
2023/05/01 01:51:23;;;;;;;11.55;4.78;;;4.90;71.50;;;;;;4821188;29;20053;-87
2023/05/01 01:53:55;;;;;;;11.50;4.43;;;4.90;71.30;;;;;;4808556;29;20068;-88
2023/05/01 01:56:24;;;;;;;10.77;4.68;;;4.80;71.80;;;;;;4819794;29;20098;-88
2023/05/01 01:58:53;;;;;;;11.27;4.80;;;4.80;71.80;;;;;;4817459;29;20409;-88
2023/05/01 02:07:13;;;;;;;10.35;4.68;;;4.60;72.40;;;;;;4827828;29;20404;-96
2023/05/01 02:09:41;;;;;;;13.88;5.00;;;4.50;72.70;;;;;;4813363;29;20111;-96
2023/05/01 02:12:10;;;;;;;11.93;4.53;;;4.60;72.40;;;;;;4813437;29;20080;-96
2023/05/01 02:14:38;;;;;;;10.80;4.90;;;4.60;72.30;;;;;;4798977;29;20051;-96
2023/05/01 02:17:06;;;;;;;12.75;5.25;;;4.60;72.30;;;;;;4813027;29;20602;-96
2023/05/01 02:19:34;;;;;;;10.82;4.88;;;4.60;72.40;;;;;;4798046;29;20054;-96
2023/05/01 02:22:02;;;;;;;10.13;4.10;;;4.50;72.30;;;;;;4813083;29;20065;-96
2023/05/01 02:24:30;;;;;;;11.07;4.47;;;4.50;72.40;;;;;;4797376;29;20054;-96
2023/05/01 02:27:15;;;;;;;10.98;4.45;;;4.50;72.10;;;;;;4797564;29;20046;-96
2023/05/01 02:29:43;;;;;;;12.52;4.53;;;4.50;72.00;;;;;;4811568;29;20088;-96
2023/05/01 02:32:11;;;;;;;11.35;4.45;;;4.60;72.10;;;;;;4812300;29;20513;-96
2023/05/01 02:34:38;;;;;;;8.45;3.78;;;4.60;72.10;;;;;;4798601;29;20053;-96
2023/05/01 02:37:06;;;;;;;8.17;4.00;;;4.70;71.50;;;;;;4814852;29;20081;-96
2023/05/01 02:39:34;;;;;;;10.70;3.70;;;4.70;71.70;;;;;;4801684;29;20054;-96
2023/05/01 02:42:08;;;;;;;11.95;4.93;;;4.80;71.50;;;;;;4819326;29;20047;-96
2023/05/01 02:44:47;;;;;;;12.35;4.70;;;4.80;71.30;;;;;;4801145;29;20393;-96
2023/05/01 02:47:18;;;;;;;13.32;4.70;;;4.90;71.20;;;;;;4812607;29;20080;-96
2023/05/01 02:49:47;;;;;;;13.70;4.33;;;4.80;70.90;;;;;;4798122;29;20497;-96
2023/05/01 02:52:17;;;;;;;9.57;3.75;;;4.70;71.10;;;;;;4798545;29;20061;-96
2023/05/01 02:54:47;;;;;;;11.18;4.40;;;4.60;71.20;;;;;;4798331;29;20050;-96
2023/05/01 02:57:19;;;;;;;11.05;4.13;;;4.50;71.20;;;;;;4797990;29;20509;-96
2023/05/01 02:59:46;;;;;;;10.65;3.97;;;4.40;71.30;;;;;;4814343;29;20050;-96
2023/05/01 03:02:14;;;;;;;14.53;4.63;;;4.40;71.40;;;;;;4826825;29;20050;-96
2023/05/01 03:04:42;;;;;;;10.98;4.10;;;4.40;71.50;;;;;;4811827;29;20054;-96
2023/05/01 03:07:10;;;;;;;12.73;4.38;;;4.40;71.70;;;;;;4796664;29;20058;-96
2023/05/01 03:09:37;;;;;;;14.07;4.50;;;4.40;71.90;;;;;;4812515;29;20149;-96
2023/05/01 03:12:07;;;;;;;11.23;3.53;;;4.40;71.60;;;;;;4811367;29;20054;-96
2023/05/01 03:14:34;;;;;;;8.93;3.20;;;4.50;71.10;;;;;;4811776;29;20141;-96
2023/05/01 03:17:01;;;;;;;11.50;3.08;;;4.50;70.80;;;;;;4826919;29;20054;-96
2023/05/01 03:19:29;;;;;;;10.38;4.15;;;4.50;70.30;;;;;;4796633;29;20082;-96
2023/05/01 03:21:56;;;;;;;9.23;3.63;;;4.60;70.40;;;;;;4811684;29;20043;-96
2023/05/01 03:24:24;;;;;;;11.00;3.78;;;4.60;70.20;;;;;;4811346;29;20054;-96
2023/05/01 03:26:51;;;;;;;8.67;3.30;;;4.60;69.90;;;;;;4796645;29;20054;-96
2023/05/01 03:29:18;;;;;;;10.57;4.22;;;4.60;69.90;;;;;;4811233;29;20050;-96
2023/05/01 03:31:45;;;;;;;11.50;3.70;;;4.50;70.20;;;;;;4796282;29;20406;-96
2023/05/01 03:34:12;;;;;;;10.55;3.95;;;4.60;70.50;;;;;;4826055;29;20066;-96
2023/05/01 03:36:39;;;;;;;12.02;3.85;;;4.60;70.50;;;;;;4796435;29;20107;-96
2023/05/01 03:39:07;;;;;;;8.47;3.53;;;4.50;70.30;;;;;;4811243;29;20043;-96
2023/05/01 03:42:06;;;;;;;12.52;3.70;;;4.50;70.30;;;;;;4815471;29;20127;-96
2023/05/01 03:44:39;;;;;;;10.10;3.17;;;4.50;69.80;;;;;;4811350;29;20057;-96
2023/05/01 03:47:06;;;;;;;8.95;3.20;;;4.50;71.10;;;;;;4796248;29;20084;-96
2023/05/01 03:49:38;;;;;;;9.43;3.47;;;4.50;71.20;;;;;;4825974;29;20110;-96
2023/05/01 03:52:05;;;;;;;9.60;3.60;;;4.50;70.90;;;;;;4811148;29;20046;-96
2023/05/01 03:54:32;;;;;;;10.23;3.17;;;4.40;70.70;;;;;;4810692;29;20061;-96
2023/05/01 03:57:10;;;;;;;11.02;3.50;;;4.40;71.10;;;;;;4811384;29;20050;-96
2023/05/01 03:59:37;;;;;;;10.40;4.03;;;4.40;71.30;;;;;;4811073;29;20091;-96
2023/05/01 04:02:05;;;;;;;11.13;3.55;;;4.40;71.10;;;;;;4811176;29;20050;-96
2023/05/01 04:04:35;;;;;;;9.27;3.03;;;4.50;71.00;;;;;;4810687;29;20054;-96
2023/05/01 04:07:02;;;;;;;13.55;4.18;;;4.50;70.80;;;;;;4825731;29;20121;-96
2023/05/01 04:09:29;;;;;;;11.93;3.47;;;4.50;71.00;;;;;;4795563;29;20083;-95
2023/05/01 04:11:57;;;;;;;9.20;3.58;;;4.50;71.20;;;;;;4810153;29;20081;-96
2023/05/01 04:14:25;;;;;;;8.70;3.30;;;4.40;71.00;;;;;;4810601;29;20051;-96
2023/05/01 04:16:53;;;;;;;10.10;3.30;;;4.40;71.00;;;;;;4810339;29;20077;-96
2023/05/01 04:19:20;;;;;;;8.95;3.03;;;4.50;71.00;;;;;;4811365;29;20050;-96
2023/05/01 04:21:51;;;;;;;8.95;3.47;;;4.50;70.50;;;;;;4796608;29;20079;-96
2023/05/01 04:24:18;;;;;;;8.82;2.88;;;4.50;71.00;;;;;;4795836;29;20054;-96
2023/05/01 04:26:45;;;;;;;9.32;3.80;;;4.60;70.70;;;;;;4826330;29;20393;-96
2023/05/01 04:29:13;;;;;;;9.37;3.57;;;4.70;70.60;;;;;;4826387;29;20053;-96
2023/05/01 04:31:42;;;;;;;11.15;3.65;;;4.70;70.50;;;;;;4811117;29;20058;-96
2023/05/01 04:34:09;;;;;;;9.75;3.80;;;4.80;70.40;;;;;;4810929;29;20145;-96
2023/05/01 04:36:37;;;;;;;9.77;3.75;;;4.80;70.00;;;;;;4795713;29;20050;-96
2023/05/01 04:39:05;;;;;;;11.23;3.45;;;4.90;70.00;;;;;;4825619;29;20511;-96
2023/05/01 04:41:32;;;;;;;9.93;3.67;;;4.90;70.00;;;;;;4810129;29;20584;-96
2023/05/01 04:43:59;;;;;;;12.20;3.75;;;5.00;70.10;;;;;;4795123;29;20051;-96
2023/05/01 04:46:27;;;;;;;9.90;3.80;;;5.00;70.40;;;;;;4809950;29;20572;-96
2023/05/01 04:48:54;;;;;;;10.57;3.83;;;5.10;70.20;;;;;;4795159;29;20050;-96
2023/05/01 04:51:21;;;;;;;8.60;3.22;;;5.20;69.30;;;;;;4810063;29;20058;-96
2023/05/01 04:53:49;;;;;;;9.33;3.40;;;5.40;68.70;;;;;;4809220;29;20454;-96
2023/05/01 04:56:23;;;;;;;10.95;3.63;;;5.40;68.10;;;;;;4795910;29;20084;-96
2023/05/01 04:58:55;;;;;;;9.15;3.53;;;5.40;68.00;;;;;;4795946;29;20133;-96
2023/05/01 05:01:24;;;;;;;10.40;3.55;;;5.50;68.00;;;;;;4810652;29;20081;-96
2023/05/01 05:03:52;;;;;;;9.88;3.25;;;5.70;67.80;;;;;;4810153;29;20107;-96
2023/05/01 05:06:20;;;;;;;8.03;2.80;;;5.80;67.00;;;;;;4810393;29;20054;-96
2023/05/01 05:08:50;;;;;;;11.77;3.22;;;6.00;66.80;;;;;;4810236;29;20054;-96
2023/05/01 05:11:18;;;;;;;9.45;3.13;;;6.10;66.90;;;;;;4795526;29;20050;-96
2023/05/01 05:13:49;;;;;;;9.57;2.92;;;6.40;65.70;;;;;;4809851;29;20060;-96
2023/05/01 05:16:16;;;;;;;8.35;2.78;;;6.50;64.90;;;;;;4810044;29;20055;-96
2023/05/01 05:18:43;;;;;;;10.70;2.80;;;6.70;64.60;;;;;;4795145;29;20050;-96
2023/05/01 05:21:10;;;;;;;9.02;2.78;;;6.90;63.90;;;;;;4809572;29;20051;-96
2023/05/01 05:23:45;;;;;;;9.45;3.00;;;7.00;64.10;;;;;;4795658;29;20100;-96
2023/05/01 05:26:12;;;;;;;7.53;2.65;;;7.30;62.30;;;;;;4809744;29;20070;-96
2023/05/01 05:28:40;;;;;;;8.77;2.80;;;7.50;62.80;;;;;;4794892;29;20062;-96
2023/05/01 05:31:11;;;;;;;7.37;2.60;;;7.60;62.20;;;;;;4824992;29;20057;-96
2023/05/01 05:33:38;;;;;;;7.20;2.60;;;7.90;61.10;;;;;;4824727;29;20093;-96
2023/05/01 05:36:05;;;;;;;8.15;2.55;;;8.00;60.70;;;;;;4795064;29;20046;-96
2023/05/01 05:38:39;;;;;;;6.18;2.17;;;8.20;59.90;;;;;;4809793;29;20043;-96
2023/05/01 05:41:08;;;;;;;6.85;2.15;;;8.40;59.80;;;;;;4809500;29;20066;-96
2023/05/01 05:43:36;;;;;;;8.90;2.43;;;8.60;59.40;;;;;;4799857;29;20046;-96
2023/05/01 05:46:04;;;;;;;7.55;2.30;;;8.80;60.10;;;;;;4809540;29;20073;-96
2023/05/01 05:48:34;;;;;;;7.93;2.30;;;9.00;58.50;;;;;;4809284;29;20054;-96
2023/05/01 05:51:02;;;;;;;9.80;2.45;;;9.10;58.90;;;;;;4794693;29;20051;-96
2023/05/01 05:53:34;;;;;;;9.13;2.22;;;9.30;58.10;;;;;;4810691;29;20050;-96
2023/05/01 05:56:01;;;;;;;6.40;2.10;;;9.50;57.10;;;;;;4796852;29;20566;-96
2023/05/01 05:58:31;;;;;;;9.32;2.50;;;9.60;56.80;;;;;;4810594;29;20046;-96
2023/05/01 06:00:58;;;;;;;9.80;2.95;;;9.80;58.00;;;;;;4795494;29;20103;-96
2023/05/01 06:03:26;;;;;;;8.63;2.50;;;9.90;56.20;;;;;;4810592;29;20138;-96
2023/05/01 06:05:57;;;;;;;7.00;2.65;;;10.00;55.40;;;;;;4800705;29;20065;-96
2023/05/01 06:08:25;;;;;;;7.73;2.10;;;10.10;56.30;;;;;;4792673;30;20051;-96
2023/05/01 06:10:52;;;;;;;8.43;2.50;;;10.30;56.60;;;;;;4808250;29;20051;-96
2023/05/01 06:13:20;;;;;;;9.38;2.42;;;10.40;57.40;;;;;;4807506;29;20533;-96
2023/05/01 06:15:48;;;;;;;8.18;2.65;;;10.50;56.00;;;;;;4807700;29;20074;-96
2023/05/01 06:18:19;;;;;;;7.68;2.50;;;10.70;55.70;;;;;;4793855;30;20108;-95
2023/05/01 06:20:46;;;;;;;6.83;2.30;;;10.90;56.00;;;;;;4791116;30;20047;-96
2023/05/01 06:23:17;;;;;;;7.15;2.58;;;11.00;54.90;;;;;;4806238;29;20101;-96
2023/05/01 06:26:05;;;;;;;7.63;2.53;;;11.10;54.60;;;;;;4803868;29;20083;-95
2023/05/01 06:28:33;;;;;;;5.57;2.30;;;11.20;53.60;;;;;;4791042;30;20462;-95
2023/05/01 06:31:05;;;;;;;11.60;2.75;;;11.30;53.50;;;;;;4806687;29;20050;-95
2023/05/01 06:33:36;;;;;;;7.00;2.73;;;11.40;53.10;;;;;;4806539;29;20068;-96
2023/05/01 06:36:15;;;;;;;6.78;2.38;;;11.50;52.50;;;;;;4806241;29;20055;-95
2023/05/01 06:38:47;;;;;;;6.88;2.30;;;11.60;52.20;;;;;;4806045;29;20510;-95
2023/05/01 06:41:18;;;;;;;8.63;2.28;;;11.80;52.90;;;;;;4790883;30;20058;-96
2023/05/01 06:43:46;;;;;;;7.40;2.30;;;11.80;52.40;;;;;;4806167;29;20051;-94
2023/05/01 06:46:18;;;;;;;8.97;2.60;;;11.90;50.90;;;;;;4805597;29;20143;-96
2023/05/01 06:48:46;;;;;;;6.72;2.10;;;12.00;51.60;;;;;;4805895;29;20081;-94
2023/05/01 06:51:14;;;;;;;6.82;2.45;;;12.10;50.50;;;;;;4805936;29;20501;-93
2023/05/01 06:53:44;;;;;;;8.23;2.75;;;12.20;50.40;;;;;;4790223;30;20506;-93
2023/05/01 06:56:12;;;;;;;6.60;2.60;;;12.30;50.60;;;;;;4806786;29;20051;-95
2023/05/01 06:58:42;;;;;;;6.37;2.33;;;12.50;50.20;;;;;;4790742;30;20142;-96
2023/05/01 07:01:09;;;;;;;5.15;2.00;;;12.50;49.60;;;;;;4791719;29;20564;-96
2023/05/01 07:03:37;;;;;;;9.35;2.38;;;12.70;48.70;;;;;;4806646;29;20051;-96
2023/05/01 07:06:04;;;;;;;5.50;1.90;;;12.80;48.00;;;;;;4805466;29;20410;-95
2023/05/01 07:08:31;;;;;;;8.95;2.72;;;13.00;49.90;;;;;;4775605;30;20061;-95
2023/05/01 07:10:59;;;;;;;6.30;2.03;;;13.10;49.10;;;;;;4775584;30;20051;-96
2023/05/01 07:13:26;;;;;;;7.10;2.15;;;13.20;48.70;;;;;;4782140;30;20104;-96
2023/05/01 07:15:55;;;;;;;7.00;2.38;;;13.30;47.70;;;;;;4782211;30;20047;-96
2023/05/01 07:18:23;;;;;;;9.43;2.28;;;13.40;47.30;;;;;;4798716;29;20060;-96
2023/05/01 07:20:51;;;;;;;6.75;2.00;;;13.50;45.90;;;;;;4782205;30;20067;-96
2023/05/01 07:23:19;;;;;;;8.97;1.97;;;13.50;47.30;;;;;;4784572;30;20069;-96
2023/05/01 07:25:46;;;;;;;7.57;2.08;;;13.60;47.00;;;;;;4781330;30;20051;-96
2023/05/01 07:28:14;;;;;;;6.82;2.10;;;13.80;46.20;;;;;;4782153;30;20055;-96
2023/05/01 07:30:41;;;;;;;7.15;2.03;;;14.00;46.70;;;;;;4779289;30;20084;-96
2023/05/01 07:33:09;;;;;;;5.90;2.00;;;14.10;46.90;;;;;;4779097;30;20059;-96
2023/05/01 07:35:36;;;;;;;7.70;2.00;;;14.10;47.50;;;;;;4784653;30;20051;-96
2023/05/01 07:38:06;;;;;;;5.75;1.83;;;14.20;46.50;;;;;;4815027;29;20043;-95
2023/05/01 07:40:34;;;;;;;7.63;2.53;;;14.30;45.10;;;;;;4780335;30;20055;-96
2023/05/01 07:43:01;;;;;;;6.07;1.95;;;14.40;48.20;;;;;;4779456;30;20055;-96
2023/05/01 07:45:28;;;;;;;10.48;2.45;;;14.50;47.30;;;;;;4778436;30;20082;-96
2023/05/01 07:47:56;;;;;;;13.60;2.40;;;14.60;46.20;;;;;;4777658;30;20082;-91
2023/05/01 07:50:24;;;;;;;7.30;2.40;;;14.70;45.20;;;;;;4771814;30;20052;-91
2023/05/01 07:52:52;;;;;;;6.47;2.22;;;14.80;47.40;;;;;;4786042;30;20143;-91
2023/05/01 07:55:21;;;;;;;7.72;2.05;;;14.90;46.70;;;;;;4803974;29;20051;-90
2023/05/01 07:57:49;;;;;;;7.32;2.30;;;15.00;45.00;;;;;;4774786;30;20598;-90
2023/05/01 08:00:16;;;;;;;8.70;1.73;;;15.00;43.70;;;;;;4785720;30;20082;-90
2023/05/01 08:02:43;;;;;;;5.45;1.80;;;15.20;47.30;;;;;;4774185;30;20086;-93
2023/05/01 08:05:10;;;;;;;8.57;2.40;;;15.30;45.80;;;;;;4773708;29;20503;-89
2023/05/01 08:07:37;;;;;;;8.75;2.40;;;15.40;46.20;;;;;;4791150;29;20123;-88
2023/05/01 08:10:05;;;;;;;6.97;2.20;;;15.40;44.60;;;;;;4793230;29;20505;-87
2023/05/01 08:12:32;;;;;;;8.53;2.53;;;15.50;45.10;;;;;;4790363;29;20054;-87
2023/05/01 08:14:59;;;;;;;8.50;2.60;;;15.50;45.50;;;;;;4790474;29;20130;-87
2023/05/01 08:17:29;;;;;;;6.60;2.50;;;15.40;45.20;;;;;;4790537;29;20043;-88
2023/05/01 08:19:59;;;;;;;7.85;2.45;;;15.40;46.10;;;;;;4790458;29;20130;-87
2023/05/01 08:22:26;;;;;;;7.78;2.40;;;15.40;46.60;;;;;;4791259;29;20072;-87
2023/05/01 08:24:54;;;;;;;7.77;2.30;;;15.40;46.60;;;;;;4789504;29;20043;-87
2023/05/01 08:27:21;;;;;;;9.07;2.60;;;15.40;47.20;;;;;;4790233;29;20050;-88
2023/05/01 08:29:48;;;;;;;8.18;2.75;;;15.40;48.50;;;;;;4790209;29;20050;-88
2023/05/01 08:32:17;;;;;;;8.57;2.63;;;15.40;49.60;;;;;;4785695;29;20101;-87
2023/05/01 08:34:45;;;;;;;6.75;2.38;;;15.50;47.50;;;;;;4790177;29;20450;-88
2023/05/01 08:37:12;;;;;;;6.43;2.60;;;15.50;46.50;;;;;;4802388;29;20047;-87
2023/05/01 08:39:39;;;;;;;9.27;3.00;;;15.50;46.70;;;;;;4790337;29;20047;-88
2023/05/01 08:42:07;;;;;;;6.75;2.72;;;15.50;47.90;;;;;;4793337;29;20382;-88
2023/05/01 08:44:37;;;;;;;10.20;2.35;;;15.50;47.90;;;;;;4790301;29;20054;-87
2023/05/01 08:47:15;;;;;;;8.57;2.90;;;15.60;50.30;;;;;;4804989;29;20485;-87
2023/05/01 08:49:42;;;;;;;9.10;2.30;;;15.80;48.90;;;;;;4789045;29;20046;-87
2023/05/01 08:52:14;;;;;;;9.23;2.53;;;15.90;48.90;;;;;;4789991;29;20043;-87
2023/05/01 08:54:43;;;;;;;7.97;2.47;;;16.00;47.10;;;;;;4805162;29;20047;-87
2023/05/01 08:57:11;;;;;;;6.72;2.67;;;16.00;46.80;;;;;;4805069;29;20050;-87
2023/05/01 08:59:39;;;;;;;8.50;2.63;;;16.00;46.70;;;;;;4790327;29;20047;-87
2023/05/01 09:02:08;;;;;;;8.63;3.13;;;16.00;46.80;;;;;;4788820;29;20061;-88
2023/05/01 09:04:39;;;;;;;6.65;2.70;;;16.10;47.00;;;;;;4788978;29;20057;-88
2023/05/01 09:07:07;;;;;;;9.60;2.70;;;16.10;47.40;;;;;;4803783;29;20063;-88
2023/05/01 09:09:34;;;;;;;9.40;2.60;;;16.20;46.50;;;;;;4800720;29;20089;-87
2023/05/01 09:12:16;;;;;;;7.40;2.28;;;16.30;46.40;;;;;;4801871;29;20072;-88
2023/05/01 09:14:44;;;;;;;6.27;2.03;;;16.40;46.80;;;;;;4801518;29;20051;-87
2023/05/01 09:17:12;;;;;;;8.48;2.70;;;16.50;47.20;;;;;;4801820;29;20043;-88
2023/05/01 09:19:40;;;;;;;7.50;2.80;;;16.60;46.40;;;;;;4801553;29;20126;-88
2023/05/01 09:22:08;;;;;;;6.18;2.20;;;16.70;48.50;;;;;;4801534;29;20138;-88
2023/05/01 09:24:35;;;;;;;7.03;2.50;;;16.80;45.80;;;;;;4801581;29;20055;-87
2023/05/01 09:27:02;;;;;;;7.60;2.70;;;16.90;46.90;;;;;;4801785;29;20060;-88
2023/05/01 09:29:38;;;;;;;8.30;2.63;;;16.80;45.70;;;;;;4794712;29;20082;-88
2023/05/01 09:32:19;;;;;;;9.23;2.70;;;17.00;45.80;;;;;;4801709;29;20044;-85
2023/05/01 09:34:48;;;;;;;8.52;2.40;;;17.00;46.70;;;;;;4801675;29;20051;-86
2023/05/01 09:37:31;;;;;;;6.95;2.60;;;17.00;46.40;;;;;;4801726;29;20086;-85
2023/05/01 09:40:09;;;;;;;7.90;3.03;;;16.90;45.20;;;;;;4803295;29;20047;-85
2023/05/01 09:42:48;;;;;;;7.43;3.20;;;17.00;47.70;;;;;;4805195;29;20123;-85
2023/05/01 09:45:16;;;;;;;8.50;3.22;;;17.00;46.10;;;;;;4805422;29;20062;-85
2023/05/01 09:47:44;;;;;;;6.35;2.63;;;17.10;46.40;;;;;;4805004;29;20047;-85
2023/05/01 09:50:31;;;;;;;7.22;2.70;;;17.20;45.80;;;;;;4804562;29;20059;-85
2023/05/01 09:53:05;;;;;;;6.67;2.90;;;17.20;45.40;;;;;;4804453;29;20081;-86
2023/05/01 09:55:33;;;;;;;6.70;2.70;;;17.20;46.50;;;;;;4790642;29;20051;-86
2023/05/01 09:58:01;;;;;;;7.07;3.03;;;17.20;46.80;;;;;;4804757;29;20051;-87
2023/05/01 10:00:29;;;;;;;7.78;2.47;;;17.30;47.50;;;;;;4805403;29;20043;-85
2023/05/01 10:02:56;;;;;;;7.70;2.63;;;17.40;45.90;;;;;;4804663;29;20054;-85
2023/05/01 10:05:23;;;;;;;7.00;2.67;;;17.30;46.50;;;;;;4810185;29;20123;-86
2023/05/01 10:08:04;;;;;;;7.35;2.90;;;17.50;46.50;;;;;;4825515;29;20111;-86
2023/05/01 10:10:31;;;;;;;8.80;2.75;;;17.70;46.50;;;;;;4794985;29;20055;-86
2023/05/01 10:13:28;;;;;;;6.47;3.08;;;17.90;47.10;;;;;;4795675;29;20070;-85
2023/05/01 10:15:55;;;;;;;8.43;2.97;;;18.00;47.90;;;;;;4795748;29;20042;-85
2023/05/01 10:18:23;;;;;;;7.53;2.57;;;18.00;45.40;;;;;;4795476;29;20566;-86
2023/05/01 10:20:51;;;;;;;6.07;2.63;;;17.90;45.90;;;;;;4789243;29;20047;-86
2023/05/01 10:23:18;;;;;;;7.82;3.20;;;17.90;46.00;;;;;;4794747;29;20134;-85
2023/05/01 10:25:48;;;;;;;6.65;2.45;;;18.00;45.50;;;;;;4810405;29;20055;-86
2023/05/01 10:28:15;;;;;;;7.32;3.33;;;18.00;46.20;;;;;;4793455;29;20053;-86
2023/05/01 10:30:45;;;;;;;5.10;2.20;;;18.10;46.50;;;;;;4810474;29;20070;-85
2023/05/01 10:33:13;;;;;;;7.80;3.00;;;18.20;47.30;;;;;;4792415;29;20111;-86
2023/05/01 10:35:44;;;;;;;6.70;2.97;;;18.30;44.80;;;;;;4808954;29;20057;-86
2023/05/01 10:38:21;;;;;;;7.90;2.70;;;18.20;47.00;;;;;;4792418;29;20086;-86
2023/05/01 10:40:49;;;;;;;6.35;2.50;;;18.30;46.50;;;;;;4803686;29;20501;-86
2023/05/01 10:43:29;;;;;;;7.67;2.20;;;18.30;46.70;;;;;;4795200;29;20057;-86
2023/05/01 10:46:18;;;;;;;7.55;2.75;;;18.30;45.70;;;;;;4809795;29;20521;-86
2023/05/01 10:48:45;;;;;;;7.50;2.70;;;18.20;45.00;;;;;;4807428;29;20061;-86
2023/05/01 10:51:14;;;;;;;8.13;2.80;;;18.50;45.70;;;;;;4809273;29;20049;-86
2023/05/01 10:53:42;;;;;;;7.78;2.78;;;18.50;44.40;;;;;;4822371;29;20054;-86
2023/05/01 11:00:00;;;;;;;8.07;2.80;;;18.50;44.90;;;;;;4824517;29;20486;-85
2023/05/01 11:02:29;;;;;;;6.60;3.00;;;18.50;44.90;;;;;;4811165;29;20047;-86
2023/05/01 11:04:58;;;;;;;7.22;2.75;;;18.50;44.40;;;;;;4807006;29;20085;-86
2023/05/01 11:07:27;;;;;;;5.88;2.50;;;18.60;44.70;;;;;;4805617;29;20137;-86
2023/05/01 11:09:57;;;;;;;6.63;2.70;;;18.80;44.10;;;;;;4809028;29;20138;-88
2023/05/01 11:12:57;;;;;;;5.88;2.47;;;18.90;44.40;;;;;;4795697;29;20066;-89
2023/05/01 11:15:26;;;;;;;8.63;3.22;;;19.00;43.00;;;;;;4785943;29;20099;-87
2023/05/01 11:17:54;;;;;;;8.30;2.67;;;19.00;45.00;;;;;;4795175;29;20489;-91
2023/05/01 11:20:24;;;;;;;6.60;2.42;;;18.90;44.60;;;;;;4793454;29;20100;-91
2023/05/01 11:22:53;;;;;;;7.50;2.90;;;18.90;43.60;;;;;;4795846;29;20043;-90
2023/05/01 11:25:29;;;;;;;8.00;2.83;;;19.00;45.20;;;;;;4793117;29;20043;-90
2023/05/01 11:27:58;;;;;;;7.35;3.35;;;19.10;46.10;;;;;;4818425;29;20071;-90
2023/05/01 11:30:25;;;;;;;5.75;2.83;;;19.10;43.20;;;;;;4795213;29;20137;-86
2023/05/01 11:32:52;;;;;;;7.18;3.65;;;19.10;44.40;;;;;;4810714;29;20050;-88
2023/05/01 11:35:21;;;;;;;8.90;2.97;;;19.00;43.80;;;;;;4824738;29;20057;-87
2023/05/01 11:37:54;;;;;;;20.02;3.80;;;19.10;44.00;;;;;;4812323;29;20106;-86
2023/05/01 11:40:24;;;;;;;7.70;2.60;;;19.10;44.90;;;;;;4795928;29;20047;-86
2023/05/01 11:43:01;;;;;;;7.72;3.22;;;19.30;44.80;;;;;;4813612;29;20053;-86
2023/05/01 11:45:28;;;;;;;8.02;3.00;;;19.50;43.00;;;;;;4794896;29;20111;-87
2023/05/01 11:47:56;;;;;;;7.50;3.00;;;19.50;44.40;;;;;;4824719;29;20117;-87
2023/05/01 11:50:36;;;;;;;9.23;3.10;;;19.30;43.40;;;;;;4809932;29;20054;-88
2023/05/01 11:53:10;;;;;;;6.38;2.92;;;19.30;44.40;;;;;;4794594;29;20050;-87
2023/05/01 11:55:38;;;;;;;6.18;2.88;;;19.50;45.60;;;;;;4808888;29;20066;-88
2023/05/01 11:58:06;;;;;;;6.03;2.90;;;19.50;45.20;;;;;;4810083;29;20101;-87
2023/05/01 12:00:38;;;;;;;6.60;3.00;;;19.50;43.20;;;;;;4794745;29;20398;-87
2023/05/01 12:03:08;;;;;;;6.97;3.15;;;19.60;45.30;;;;;;4795342;29;20529;-90
2023/05/01 12:05:38;;;;;;;7.28;3.25;;;19.50;43.80;;;;;;4795387;29;20505;-90
2023/05/01 12:08:08;;;;;;;7.40;2.70;;;19.50;44.90;;;;;;4795333;29;20073;-89
2023/05/01 12:10:37;;;;;;;7.22;3.22;;;19.60;44.50;;;;;;4795528;29;20549;-90
2023/05/01 12:13:05;;;;;;;8.20;3.23;;;19.70;43.70;;;;;;4795370;29;20505;-91
2023/05/01 12:15:39;;;;;;;8.00;2.90;;;19.60;42.70;;;;;;4795285;29;20058;-90
2023/05/01 12:18:07;;;;;;;8.70;3.30;;;19.70;43.20;;;;;;4809788;29;20061;-88
2023/05/01 12:20:46;;;;;;;7.00;2.83;;;19.50;42.00;;;;;;4809287;29;20050;-89
2023/05/01 12:23:15;;;;;;;8.63;3.17;;;19.60;44.00;;;;;;4796257;29;20071;-93
2023/05/01 12:25:44;;;;;;;9.30;3.43;;;19.60;42.30;;;;;;4810544;29;20046;-91
2023/05/01 12:28:17;;;;;;;8.05;2.80;;;19.80;42.80;;;;;;4793764;29;20715;-89
2023/05/01 12:30:48;;;;;;;9.20;3.20;;;19.80;43.50;;;;;;4790830;29;20150;-86
2023/05/01 12:33:17;;;;;;;7.32;3.33;;;19.90;44.40;;;;;;4793645;29;20050;-86
2023/05/01 12:35:48;;;;;;;8.18;3.72;;;20.10;45.00;;;;;;4824497;29;20049;-86
2023/05/01 12:38:17;;;;;;;8.33;3.40;;;20.00;44.20;;;;;;4808550;29;20061;-85
2023/05/01 12:40:56;;;;;;;7.57;2.90;;;19.90;43.40;;;;;;4790387;29;20047;-86
2023/05/01 12:43:33;;;;;;;8.40;2.72;;;19.90;44.10;;;;;;4807598;29;20081;-86
2023/05/01 12:46:02;;;;;;;6.47;3.03;;;19.90;43.50;;;;;;4790667;29;20059;-86
2023/05/01 12:48:31;;;;;;;7.57;3.30;;;19.80;42.90;;;;;;4793559;29;20084;-86
2023/05/01 12:51:00;;;;;;;7.53;2.93;;;19.70;44.50;;;;;;4793704;29;20047;-86
2023/05/01 12:53:28;;;;;;;8.10;2.88;;;19.80;44.00;;;;;;4808148;29;20050;-86
2023/05/01 12:55:58;;;;;;;7.82;3.30;;;19.90;42.60;;;;;;4808328;29;20409;-86
2023/05/01 12:58:36;;;;;;;6.18;2.90;;;19.90;44.10;;;;;;4807767;29;20129;-86
2023/05/01 13:01:04;;;;;;;6.70;2.67;;;20.00;42.60;;;;;;4814265;29;20050;-86
2023/05/01 13:03:34;;;;;;;6.53;2.87;;;20.10;44.00;;;;;;4792924;29;20038;-86
2023/05/01 13:06:06;;;;;;;8.75;3.53;;;20.20;42.90;;;;;;4808609;29;20162;-86
2023/05/01 13:08:36;;;;;;;10.65;3.42;;;20.10;42.10;;;;;;4809273;29;20102;-86
2023/05/01 13:11:15;;;;;;;7.35;2.92;;;20.10;41.80;;;;;;4793579;29;20442;-86
2023/05/01 13:13:44;;;;;;;8.30;3.30;;;20.10;41.40;;;;;;4790440;29;20051;-86